PILOTS ONLINE: 396    ATC ONLINE: 59

KNSE

Whiting Field Naval Air Station North Airport

Location

City Milton
Country  United States
Latitude 30° 43' 27" N
Longitude 87° 1' 18" W
Elevation 199 ft
Type Medium Airport

Map

Weather

METAR
2014/09/02 20:56
KNSE 022056Z 21010KT 10SM SCT035CB SCT120 BKN250 30/22 A3001 RMK AO2 SLP146 CB DSNT E-SE T1 SET T03000222 56016 $
TAF
2014/09/02 17:18
TAF TAF 
      AMD KNSE 0217/0315 18006KT 9999 VCTS SCT040CB SCT250 QNH2999INS 
      TEMPO 0218/0221 VRB12G18KT 8000 TSRA SCT035CB BKN050 
     FM030100 VRB04KT 9999 FEW020 SCT250 QNH2997INS 
     FM030800 VRB03KT 9000 BR FEW250 QNH2998INS T34/0220Z T23/0311Z 
      AMD 1715 FN20030

Runways

05/23 6000 ft / 200 ft
09/27 6000 ft / 200 ft
14/32 6000 ft / 200 ft
18/36 6000 ft / 200 ft

Outbound flights

Callsign Flying to Pilot ATD/STD ETA Aircraft

Inbound flights

Callsign Flying from Pilot ATD ETA Aircraft